Time;durP1;ratioP1;P1;durP2;ratioP2;P2;SDS_P1;SDS_P2;PMS_P1;PMS_P2;Temp;Humidity;BMP_temperature;BMP_pressure;BME280_temperature;BME280_humidity;BME280_pressure;Samples;Min_cycle;Max_cycle;Signal;HPM_P1;HPM_P2
2022/04/27 00:00:21;;;;;;;2.38;1.85;;;13.60;57.50;;;;;;5093840;28;20020;-80
2022/04/27 00:02:47;;;;;;;2.78;1.98;;;13.60;57.60;;;;;;5099195;28;20036;-80
2022/04/27 00:05:14;;;;;;;3.67;1.85;;;13.50;57.50;;;;;;5077873;28;20043;-79
2022/04/27 00:07:39;;;;;;;2.50;2.00;;;13.50;57.60;;;;;;5091564;28;20119;-82
2022/04/27 00:10:06;;;;;;;2.60;1.80;;;13.50;57.60;;;;;;5100641;28;20015;-81
2022/04/27 00:12:35;;;;;;;3.42;1.92;;;13.40;57.60;;;;;;5077950;28;20582;-82
2022/04/27 00:15:02;;;;;;;2.60;2.08;;;13.40;57.60;;;;;;5076977;28;20038;-80
2022/04/27 00:17:28;;;;;;;4.13;2.13;;;13.30;57.60;;;;;;5093446;28;20031;-80
2022/04/27 00:19:54;;;;;;;3.05;2.10;;;13.30;57.60;;;;;;5091396;28;20031;-80
2022/04/27 00:22:19;;;;;;;2.78;2.13;;;13.30;57.70;;;;;;5054299;28;20115;-80
2022/04/27 00:24:45;;;;;;;2.88;2.00;;;13.30;57.70;;;;;;5073590;28;20062;-80
2022/04/27 00:27:11;;;;;;;2.28;1.90;;;13.20;57.70;;;;;;5093625;28;20495;-79
2022/04/27 00:29:37;;;;;;;3.22;2.08;;;13.20;57.70;;;;;;5074856;28;20032;-79
2022/04/27 00:32:03;;;;;;;3.03;2.10;;;13.10;57.70;;;;;;5090158;28;20032;-79
2022/04/27 00:34:28;;;;;;;2.38;1.80;;;13.20;57.80;;;;;;5093217;28;20067;-80
2022/04/27 00:36:54;;;;;;;2.90;1.95;;;13.10;57.70;;;;;;5092485;28;20060;-79
2022/04/27 00:39:20;;;;;;;2.28;1.90;;;13.10;57.80;;;;;;5075260;28;20017;-80
2022/04/27 00:42:02;;;;;;;3.50;2.38;;;13.10;57.80;;;;;;5068248;28;20520;-80
2022/04/27 00:44:29;;;;;;;2.83;2.20;;;13.00;57.80;;;;;;5080208;28;20051;-81
2022/04/27 00:46:55;;;;;;;3.30;2.17;;;13.00;57.80;;;;;;5077081;28;20028;-80
2022/04/27 00:49:21;;;;;;;2.90;1.92;;;13.00;57.80;;;;;;5088411;28;20151;-80
2022/04/27 00:51:48;;;;;;;2.88;2.22;;;12.90;57.80;;;;;;5110443;28;20842;-79
2022/04/27 00:54:15;;;;;;;4.32;2.40;;;12.90;57.90;;;;;;5079835;28;20032;-80
2022/04/27 00:56:42;;;;;;;2.88;2.40;;;12.80;57.90;;;;;;5082922;28;20038;-80
2022/04/27 00:59:08;;;;;;;3.15;2.20;;;12.90;58.00;;;;;;5077933;28;20032;-80
2022/04/27 01:01:35;;;;;;;3.45;2.03;;;12.80;57.90;;;;;;5086302;28;20021;-81
2022/04/27 01:04:01;;;;;;;3.78;2.20;;;12.80;58.00;;;;;;5098641;28;20040;-79
2022/04/27 01:06:29;;;;;;;2.22;1.92;;;12.80;58.10;;;;;;5080769;28;20552;-79
2022/04/27 01:08:55;;;;;;;3.05;2.30;;;12.70;58.00;;;;;;5079523;28;20115;-79
2022/04/27 01:11:20;;;;;;;3.60;2.13;;;12.70;58.00;;;;;;5058170;28;20024;-80
2022/04/27 01:13:54;;;;;;;2.97;2.20;;;12.70;58.10;;;;;;5095502;28;20040;-80
2022/04/27 01:16:21;;;;;;;3.63;2.20;;;12.60;58.00;;;;;;5086739;28;20095;-79
2022/04/27 01:18:49;;;;;;;3.15;2.20;;;12.60;58.10;;;;;;5080194;28;20028;-79
2022/04/27 01:21:16;;;;;;;2.28;2.00;;;12.60;58.10;;;;;;5076157;28;20031;-80
2022/04/27 01:23:56;;;;;;;2.83;2.00;;;12.50;58.10;;;;;;5092359;28;20063;-79
2022/04/27 01:26:22;;;;;;;3.30;2.20;;;12.50;58.20;;;;;;5085356;28;20064;-78
2022/04/27 01:28:48;;;;;;;2.90;2.00;;;12.50;58.20;;;;;;5089583;28;20064;-81
2022/04/27 01:31:14;;;;;;;2.63;2.00;;;12.40;58.10;;;;;;5076738;28;20036;-80
2022/04/27 01:33:40;;;;;;;3.08;2.20;;;12.40;58.10;;;;;;5074120;28;20457;-80
2022/04/27 01:36:07;;;;;;;3.63;2.30;;;12.40;58.20;;;;;;5094619;28;20032;-80
2022/04/27 01:38:38;;;;;;;3.55;2.40;;;12.30;58.10;;;;;;5065558;28;20013;-79
2022/04/27 01:41:05;;;;;;;2.80;1.95;;;12.30;58.20;;;;;;5098081;28;20019;-79
2022/04/27 01:43:33;;;;;;;2.95;2.17;;;12.30;58.20;;;;;;5083862;28;20032;-80
2022/04/27 01:45:59;;;;;;;2.53;2.00;;;12.20;58.20;;;;;;5102778;28;20044;-79
2022/04/27 01:48:26;;;;;;;3.80;2.25;;;12.30;58.30;;;;;;5056328;28;20028;-80
2022/04/27 01:50:52;;;;;;;3.63;2.50;;;12.20;58.30;;;;;;5086914;28;20063;-79
2022/04/27 01:56:03;;;;;;;3.13;2.17;;;12.20;58.30;;;;;;5089689;28;20055;-79
2022/04/27 01:58:34;;;;;;;3.03;2.20;;;12.10;58.30;;;;;;5064048;28;20043;-79
2022/04/27 02:01:00;;;;;;;3.05;1.92;;;12.10;58.30;;;;;;5061278;28;20123;-79
2022/04/27 02:03:28;;;;;;;2.60;2.10;;;12.00;58.30;;;;;;5090394;28;20024;-80
2022/04/27 02:05:54;;;;;;;2.45;1.98;;;12.00;58.30;;;;;;5096712;28;20576;-80
2022/04/27 02:08:22;;;;;;;4.18;2.25;;;12.00;58.40;;;;;;5092232;28;20027;-80
2022/04/27 02:10:48;;;;;;;2.70;2.20;;;12.00;58.40;;;;;;5082455;28;20032;-79
2022/04/27 02:13:14;;;;;;;3.03;2.08;;;12.00;58.50;;;;;;5088604;28;20078;-79
2022/04/27 02:15:40;;;;;;;3.55;2.30;;;11.90;58.40;;;;;;5076735;28;20097;-78
2022/04/27 02:18:32;;;;;;;3.20;2.30;;;11.90;58.40;;;;;;5078973;28;20505;-79
2022/04/27 02:20:58;;;;;;;2.72;2.10;;;11.90;58.40;;;;;;5091821;28;20119;-79
2022/04/27 02:23:23;;;;;;;3.25;2.42;;;11.80;58.40;;;;;;5059783;28;20040;-79
2022/04/27 02:25:51;;;;;;;2.83;2.05;;;11.80;58.50;;;;;;5104624;28;20044;-79
2022/04/27 02:28:17;;;;;;;3.63;2.22;;;11.80;58.50;;;;;;5090783;28;20098;-79
2022/04/27 02:30:43;;;;;;;3.58;2.30;;;11.80;58.60;;;;;;5076581;28;20487;-79
2022/04/27 02:33:09;;;;;;;2.33;2.13;;;11.70;58.60;;;;;;5075944;28;20024;-80
2022/04/27 02:35:34;;;;;;;3.00;2.00;;;11.70;58.60;;;;;;5069087;28;20508;-80
2022/04/27 02:38:00;;;;;;;3.45;2.20;;;11.60;58.60;;;;;;5074513;28;20026;-80
2022/04/27 02:40:28;;;;;;;2.75;2.08;;;11.60;58.60;;;;;;5064605;28;20495;-80
2022/04/27 02:42:57;;;;;;;2.35;2.00;;;11.60;58.60;;;;;;5074941;28;20036;-80
2022/04/27 02:45:23;;;;;;;3.28;2.22;;;11.50;58.60;;;;;;5089670;28;20042;-78
2022/04/27 02:47:49;;;;;;;3.03;2.20;;;11.60;58.70;;;;;;5074753;28;20060;-81
2022/04/27 02:53:00;;;;;;;2.60;2.15;;;11.50;58.70;;;;;;5099390;28;20025;-81
2022/04/27 02:55:36;;;;;;;2.97;2.40;;;11.50;58.70;;;;;;5094063;28;20081;-81
2022/04/27 02:58:02;;;;;;;2.30;1.88;;;11.40;58.70;;;;;;5091671;28;20024;-78
2022/04/27 03:00:30;;;;;;;3.03;2.05;;;11.40;58.80;;;;;;5096785;28;20016;-81
2022/04/27 03:02:58;;;;;;;2.53;2.17;;;11.40;58.80;;;;;;5075546;28;20056;-81
2022/04/27 03:05:24;;;;;;;3.00;2.22;;;11.30;58.80;;;;;;5099517;28;20124;-78
2022/04/27 03:07:49;;;;;;;2.58;1.85;;;11.30;58.80;;;;;;5096161;28;20028;-78
2022/04/27 03:10:16;;;;;;;2.78;2.30;;;11.30;58.90;;;;;;5070209;28;20028;-79
2022/04/27 03:12:42;;;;;;;2.88;2.30;;;11.20;58.80;;;;;;5083050;28;20029;-78
2022/04/27 03:15:09;;;;;;;2.95;2.13;;;11.20;58.90;;;;;;5089782;28;20485;-78
2022/04/27 03:17:35;;;;;;;2.33;1.98;;;11.20;58.90;;;;;;5074875;28;20118;-79
2022/04/27 03:20:04;;;;;;;2.92;2.03;;;11.20;58.90;;;;;;5076882;28;20031;-79
2022/04/27 03:22:30;;;;;;;2.83;2.15;;;11.10;58.90;;;;;;5094673;28;20112;-78
2022/04/27 03:24:56;;;;;;;3.40;2.22;;;11.10;58.90;;;;;;5082309;28;20043;-79
2022/04/27 03:27:27;;;;;;;2.88;2.00;;;11.10;59.00;;;;;;5072884;28;20585;-79
2022/04/27 03:29:53;;;;;;;2.85;2.15;;;11.10;59.00;;;;;;5072849;28;20052;-79
2022/04/27 03:32:19;;;;;;;3.90;2.33;;;11.00;58.90;;;;;;5078903;28;20055;-79
2022/04/27 03:34:52;;;;;;;2.78;2.10;;;11.00;59.00;;;;;;5073800;28;20032;-78
2022/04/27 03:37:21;;;;;;;2.70;1.90;;;11.00;59.00;;;;;;5072736;28;20032;-79
2022/04/27 03:39:47;;;;;;;2.58;2.10;;;11.00;59.00;;;;;;5083206;28;20025;-80
2022/04/27 03:42:18;;;;;;;2.50;1.95;;;10.90;59.00;;;;;;5085892;28;20032;-79
2022/04/27 03:44:47;;;;;;;3.13;2.13;;;10.90;59.10;;;;;;5078552;28;20037;-80
2022/04/27 03:47:13;;;;;;;3.13;2.17;;;10.90;59.10;;;;;;5087029;28;20035;-79
2022/04/27 03:49:38;;;;;;;3.38;2.42;;;10.80;59.00;;;;;;5091928;28;20039;-79
2022/04/27 03:52:05;;;;;;;2.28;1.98;;;10.80;59.10;;;;;;5073861;28;20020;-80
2022/04/27 03:54:30;;;;;;;3.42;2.70;;;10.80;59.10;;;;;;5062458;28;20032;-80
2022/04/27 03:56:58;;;;;;;3.70;2.50;;;10.80;59.10;;;;;;5074955;28;20492;-79
2022/04/27 03:59:25;;;;;;;3.67;2.45;;;10.70;59.10;;;;;;5077929;28;20392;-79
2022/04/27 04:01:51;;;;;;;3.00;2.15;;;10.70;59.10;;;;;;5072679;28;20037;-79
2022/04/27 04:04:17;;;;;;;3.58;2.45;;;10.70;59.20;;;;;;5070902;28;20047;-80
2022/04/27 04:06:43;;;;;;;3.30;2.22;;;10.70;59.20;;;;;;5074883;28;20021;-80
2022/04/27 04:09:09;;;;;;;3.85;2.45;;;10.70;59.20;;;;;;5070997;28;20125;-79
2022/04/27 04:11:36;;;;;;;2.92;2.15;;;10.60;59.20;;;;;;5074680;28;20418;-79
2022/04/27 04:14:24;;;;;;;2.28;1.95;;;10.60;59.20;;;;;;5073169;28;20469;-80
2022/04/27 04:16:53;;;;;;;2.95;2.20;;;10.60;59.20;;;;;;5065284;28;20565;-79
2022/04/27 04:19:41;;;;;;;2.85;2.30;;;10.60;59.30;;;;;;5076158;28;20119;-80
2022/04/27 04:22:19;;;;;;;2.70;2.13;;;10.50;59.20;;;;;;5085505;28;20032;-80
2022/04/27 04:30:34;;;;;;;2.38;2.05;;;10.40;59.30;;;;;;5078200;28;20119;-78
2022/04/27 04:33:20;;;;;;;3.13;2.13;;;10.40;59.40;;;;;;5084336;28;20032;-79
2022/04/27 04:35:51;;;;;;;3.90;2.53;;;10.40;59.40;;;;;;5075196;28;20435;-80
2022/04/27 04:38:19;;;;;;;3.28;2.53;;;10.30;59.40;;;;;;5059124;28;20035;-79
2022/04/27 04:40:45;;;;;;;3.13;2.30;;;10.30;59.50;;;;;;5076218;28;20064;-79
2022/04/27 04:43:12;;;;;;;3.42;2.40;;;10.30;59.50;;;;;;5098896;28;20074;-79
2022/04/27 04:45:40;;;;;;;3.40;2.45;;;10.30;59.50;;;;;;5077321;28;20039;-82
2022/04/27 04:48:23;;;;;;;2.90;2.45;;;10.20;59.50;;;;;;5077214;28;20117;-81
2022/04/27 04:51:18;;;;;;;3.22;2.60;;;10.20;59.50;;;;;;5072395;28;20047;-81
2022/04/27 04:53:49;;;;;;;3.45;2.60;;;10.20;59.50;;;;;;5072119;28;20056;-81
2022/04/27 04:56:35;;;;;;;2.60;2.10;;;10.20;59.60;;;;;;5082175;28;20111;-80
2022/04/27 04:59:18;;;;;;;2.65;2.30;;;10.20;59.60;;;;;;5083347;28;20085;-82
2022/04/27 05:02:04;;;;;;;3.35;2.50;;;10.20;59.60;;;;;;5085398;28;20489;-81
2022/04/27 05:04:50;;;;;;;3.17;2.33;;;10.10;59.70;;;;;;5076959;28;20089;-79
2022/04/27 05:07:34;;;;;;;3.25;2.33;;;10.10;59.70;;;;;;5089119;28;20676;-80
2022/04/27 05:10:29;;;;;;;2.95;2.35;;;10.10;59.70;;;;;;5041877;28;20185;-79
2022/04/27 05:13:18;;;;;;;3.25;2.40;;;10.00;59.70;;;;;;5072544;28;20028;-80
2022/04/27 05:16:10;;;;;;;3.35;2.45;;;10.00;59.80;;;;;;5081122;28;20500;-82
2022/04/27 05:18:59;;;;;;;4.28;2.65;;;10.00;59.80;;;;;;5077799;28;20130;-81
2022/04/27 05:21:48;;;;;;;3.05;2.53;;;10.00;59.90;;;;;;5063074;28;20040;-80
2022/04/27 05:24:37;;;;;;;3.25;2.38;;;10.00;59.90;;;;;;5081344;28;20059;-80
2022/04/27 05:27:24;;;;;;;3.00;2.45;;;9.90;59.90;;;;;;5067030;28;20032;-80
2022/04/27 05:33:00;;;;;;;2.78;2.35;;;9.90;60.00;;;;;;5059304;28;20040;-81
2022/04/27 05:35:45;;;;;;;3.30;2.58;;;9.90;60.00;;;;;;5089587;28;20039;-80
2022/04/27 05:38:27;;;;;;;3.53;2.63;;;9.90;60.10;;;;;;5058005;28;20147;-80
2022/04/27 05:41:16;;;;;;;3.47;2.60;;;9.90;60.20;;;;;;5073306;28;20043;-80
2022/04/27 05:43:51;;;;;;;3.72;2.75;;;9.90;60.20;;;;;;5097164;28;20071;-79
2022/04/27 05:46:41;;;;;;;2.90;2.22;;;9.90;60.30;;;;;;5081009;28;20039;-80
2022/04/27 05:49:23;;;;;;;3.50;2.42;;;9.90;60.30;;;;;;5091667;28;20126;-80
2022/04/27 05:52:21;;;;;;;3.50;2.65;;;9.80;60.20;;;;;;5077356;28;20033;-80
2022/04/27 05:55:05;;;;;;;3.08;2.63;;;9.80;60.30;;;;;;5086341;28;20040;-80
2022/04/27 05:57:46;;;;;;;4.07;2.65;;;9.80;60.30;;;;;;5084902;28;20024;-79
2022/04/27 06:00:31;;;;;;;3.60;2.88;;;9.80;60.40;;;;;;5094578;28;20527;-80
2022/04/27 06:03:22;;;;;;;3.40;2.60;;;9.80;60.40;;;;;;5080317;28;20421;-80
2022/04/27 06:05:48;;;;;;;4.22;2.80;;;9.80;60.40;;;;;;5079663;28;20146;-80
2022/04/27 06:08:17;;;;;;;3.40;2.60;;;9.80;60.50;;;;;;5068250;28;20123;-80
2022/04/27 06:10:44;;;;;;;3.63;2.45;;;9.80;60.50;;;;;;5076113;28;20035;-77
2022/04/27 06:13:09;;;;;;;3.97;2.78;;;9.80;60.50;;;;;;5084552;28;20035;-78
2022/04/27 06:16:02;;;;;;;4.10;2.97;;;9.80;60.50;;;;;;5078210;28;20045;-79
2022/04/27 06:18:41;;;;;;;4.07;2.78;;;9.90;60.60;;;;;;5072794;28;20127;-78
2022/04/27 06:21:11;;;;;;;3.65;2.50;;;9.80;60.60;;;;;;5044851;28;20024;-77
2022/04/27 06:23:39;;;;;;;3.10;2.35;;;9.80;60.60;;;;;;5071915;28;20048;-77
2022/04/27 06:26:08;;;;;;;2.85;2.47;;;9.80;60.70;;;;;;5071720;28;20380;-77
2022/04/27 06:28:38;;;;;;;2.95;2.45;;;9.90;60.70;;;;;;5088597;28;20031;-77
2022/04/27 06:31:04;;;;;;;3.45;2.60;;;9.90;60.80;;;;;;5073779;28;20127;-77
2022/04/27 06:33:30;;;;;;;4.00;2.83;;;9.90;60.80;;;;;;5068404;28;20104;-78
2022/04/27 06:35:56;;;;;;;3.40;2.55;;;9.90;60.80;;;;;;5082866;28;20146;-77
2022/04/27 06:38:22;;;;;;;4.05;2.75;;;9.90;60.80;;;;;;5072801;28;20138;-77
2022/04/27 06:40:48;;;;;;;3.28;2.67;;;9.90;60.80;;;;;;5076336;28;20118;-76
2022/04/27 06:43:14;;;;;;;2.88;2.25;;;9.90;60.80;;;;;;5067501;28;20031;-78
2022/04/27 06:45:49;;;;;;;3.80;2.97;;;9.90;60.80;;;;;;5099814;28;20058;-77
2022/04/27 06:48:33;;;;;;;3.38;2.53;;;9.90;60.80;;;;;;5083952;28;20070;-77
2022/04/27 06:51:18;;;;;;;3.53;2.40;;;9.90;60.80;;;;;;5104285;28;20043;-78
2022/04/27 06:54:04;;;;;;;3.40;2.53;;;9.90;60.80;;;;;;5098563;28;20127;-79
2022/04/27 06:56:30;;;;;;;3.10;2.50;;;9.90;60.80;;;;;;5084385;28;20036;-77
2022/04/27 06:59:14;;;;;;;3.58;2.70;;;10.00;60.90;;;;;;5100765;28;20039;-77
2022/04/27 07:01:42;;;;;;;3.28;2.67;;;9.90;60.80;;;;;;5103574;28;20101;-77
2022/04/27 07:04:11;;;;;;;3.83;2.75;;;10.00;60.90;;;;;;5078877;28;20093;-76
2022/04/27 07:06:38;;;;;;;3.85;2.58;;;10.00;61.20;;;;;;5081890;28;20056;-81
2022/04/27 07:09:07;;;;;;;3.15;2.50;;;10.00;60.90;;;;;;5080887;28;20111;-77
2022/04/27 07:11:33;;;;;;;3.13;2.45;;;10.00;61.00;;;;;;5093747;28;20469;-78
2022/04/27 07:13:59;;;;;;;3.33;2.53;;;10.00;60.90;;;;;;5066438;28;20020;-78
2022/04/27 07:16:25;;;;;;;3.35;2.63;;;10.10;61.00;;;;;;5091724;28;20479;-77
2022/04/27 07:18:53;;;;;;;3.10;2.60;;;10.10;61.00;;;;;;5088529;28;20037;-79
2022/04/27 07:21:19;;;;;;;4.55;2.78;;;10.10;61.00;;;;;;5075215;28;20043;-78
2022/04/27 07:23:45;;;;;;;3.55;2.38;;;10.10;61.00;;;;;;5069358;28;20048;-77
2022/04/27 07:26:11;;;;;;;3.15;2.55;;;10.10;61.00;;;;;;5073196;28;20441;-78
2022/04/27 07:28:38;;;;;;;3.22;2.40;;;10.10;61.00;;;;;;5068476;28;20082;-78
2022/04/27 07:31:05;;;;;;;2.70;2.40;;;10.20;61.10;;;;;;5086989;28;20024;-78
2022/04/27 07:33:31;;;;;;;3.25;2.35;;;10.20;61.10;;;;;;5101435;28;20023;-78
2022/04/27 07:35:57;;;;;;;3.58;2.55;;;10.20;61.10;;;;;;5101210;28;20032;-78
2022/04/27 07:38:22;;;;;;;3.05;2.30;;;10.20;61.10;;;;;;5081198;28;20605;-79
2022/04/27 07:40:48;;;;;;;4.63;2.58;;;10.20;61.70;;;;;;5097287;28;20453;-79
2022/04/27 07:43:14;;;;;;;3.33;2.42;;;10.30;61.10;;;;;;5083759;28;20472;-79
2022/04/27 07:45:44;;;;;;;3.03;2.28;;;10.30;61.10;;;;;;5090330;28;20043;-77
2022/04/27 07:48:10;;;;;;;3.28;2.70;;;10.30;61.30;;;;;;5075445;28;20062;-77
2022/04/27 07:50:36;;;;;;;3.80;2.60;;;10.30;61.10;;;;;;5073716;28;20119;-79
2022/04/27 07:53:02;;;;;;;3.28;2.40;;;10.30;61.10;;;;;;5094171;28;20115;-78
2022/04/27 07:55:29;;;;;;;4.28;2.60;;;10.40;61.10;;;;;;5083286;28;20027;-78
2022/04/27 07:57:55;;;;;;;3.47;2.47;;;10.40;61.10;;;;;;5089915;28;20487;-78
2022/04/27 08:00:21;;;;;;;2.78;2.30;;;10.40;61.10;;;;;;5095329;28;20480;-79
2022/04/27 08:02:48;;;;;;;3.63;2.45;;;10.40;61.10;;;;;;5059690;28;20036;-78
2022/04/27 08:05:17;;;;;;;3.40;2.38;;;10.50;61.10;;;;;;5095998;28;20034;-79
2022/04/27 08:07:44;;;;;;;2.38;2.00;;;10.50;61.70;;;;;;5090070;28;20024;-77
2022/04/27 08:10:14;;;;;;;3.33;2.20;;;10.60;61.10;;;;;;5062615;28;20035;-78
2022/04/27 08:12:41;;;;;;;2.65;2.10;;;10.60;61.10;;;;;;5080521;28;20029;-79
2022/04/27 08:15:07;;;;;;;3.42;2.10;;;10.70;61.10;;;;;;5103939;28;20051;-78
2022/04/27 08:17:33;;;;;;;3.10;2.30;;;10.70;61.00;;;;;;5055652;28;20032;-77
2022/04/27 08:22:44;;;;;;;2.85;2.13;;;10.80;61.00;;;;;;5096387;28;20059;-78
2022/04/27 08:25:10;;;;;;;4.28;2.25;;;10.90;60.90;;;;;;5097824;28;20031;-76
2022/04/27 08:27:36;;;;;;;2.08;1.90;;;11.00;60.90;;;;;;5095144;28;20118;-76
2022/04/27 08:30:03;;;;;;;2.53;2.10;;;11.00;60.80;;;;;;5048795;28;20033;-77
2022/04/27 08:32:28;;;;;;;2.83;2.15;;;11.10;60.80;;;;;;5091643;28;20036;-77
2022/04/27 08:34:54;;;;;;;2.65;1.98;;;11.10;60.70;;;;;;5088075;28;20032;-76
2022/04/27 08:37:20;;;;;;;3.03;2.00;;;11.20;60.70;;;;;;5095715;28;20483;-77
2022/04/27 08:39:46;;;;;;;2.63;2.13;;;11.30;60.60;;;;;;5067137;28;20027;-77
2022/04/27 08:42:12;;;;;;;2.80;1.98;;;11.40;60.60;;;;;;5072572;28;20050;-76
2022/04/27 08:44:38;;;;;;;2.53;1.85;;;11.40;60.50;;;;;;5076735;28;20040;-76
2022/04/27 08:47:09;;;;;;;2.95;1.95;;;11.50;60.40;;;;;;5092747;28;20475;-76
2022/04/27 08:49:35;;;;;;;2.25;1.80;;;11.60;60.40;;;;;;5080110;28;20466;-77
2022/04/27 08:52:05;;;;;;;1.83;1.60;;;11.70;60.30;;;;;;5093565;28;20028;-76
2022/04/27 08:54:33;;;;;;;2.38;1.95;;;11.80;60.40;;;;;;5069699;28;20028;-77
2022/04/27 08:56:59;;;;;;;2.22;2.03;;;11.80;60.20;;;;;;5085054;28;20028;-76
2022/04/27 08:59:25;;;;;;;2.72;1.80;;;11.90;60.20;;;;;;5075810;28;20025;-77
2022/04/27 09:01:51;;;;;;;2.20;1.77;;;12.00;60.20;;;;;;5077721;28;20032;-77
2022/04/27 09:04:18;;;;;;;1.85;1.70;;;12.10;60.10;;;;;;5087086;28;20075;-83
2022/04/27 09:09:36;;;;;;;1.98;1.77;;;12.30;60.10;;;;;;5673397;23;20778;-78
2022/04/27 09:12:08;;;;;;;2.13;1.70;;;12.40;60.10;;;;;;4951227;29;20039;-84
2022/04/27 09:14:38;;;;;;;2.00;1.77;;;12.50;59.90;;;;;;4924722;29;20039;-80
2022/04/27 09:22:58;;;;;;;3.13;1.98;;;12.80;59.50;;;;;;4955853;29;20031;-79
2022/04/27 09:25:52;;;;;;;2.13;1.80;;;12.90;59.40;;;;;;4922760;29;20410;-78
2022/04/27 09:28:21;;;;;;;1.80;1.67;;;13.00;59.60;;;;;;4951456;29;20498;-79
2022/04/27 09:30:48;;;;;;;3.45;1.98;;;13.10;59.50;;;;;;4939036;29;20043;-79
2022/04/27 09:33:28;;;;;;;3.08;1.80;;;13.20;59.50;;;;;;4938498;29;20035;-80
2022/04/27 09:35:56;;;;;;;2.60;1.80;;;13.30;59.50;;;;;;4938885;29;20042;-80
2022/04/27 09:38:22;;;;;;;3.20;1.80;;;13.40;59.50;;;;;;4938554;29;20034;-78
2022/04/27 09:40:54;;;;;;;2.25;1.77;;;13.60;59.50;;;;;;4938463;29;20031;-77
2022/04/27 09:43:41;;;;;;;1.92;1.63;;;13.70;59.50;;;;;;4938325;29;20029;-80
2022/04/27 09:46:22;;;;;;;2.45;1.85;;;13.80;59.60;;;;;;4938198;29;20092;-78
2022/04/27 09:49:14;;;;;;;2.03;1.63;;;13.90;59.50;;;;;;4958478;29;20035;-81
2022/04/27 09:51:49;;;;;;;1.50;1.40;;;14.00;59.40;;;;;;4959694;28;20023;-81
2022/04/27 09:54:20;;;;;;;1.83;1.67;;;14.10;59.40;;;;;;4957527;29;20050;-82
2022/04/27 09:57:00;;;;;;;1.70;1.60;;;14.20;60.00;;;;;;4939650;29;20054;-84
2022/04/27 09:59:32;;;;;;;2.60;1.90;;;14.30;59.50;;;;;;4954591;28;20070;-83
2022/04/27 10:02:08;;;;;;;1.83;1.63;;;14.40;59.30;;;;;;4939357;29;20456;-83
2022/04/27 10:04:36;;;;;;;1.90;1.60;;;14.50;59.30;;;;;;4938796;29;20071;-80
2022/04/27 10:07:07;;;;;;;2.10;1.60;;;14.60;59.30;;;;;;4955556;28;20102;-81
2022/04/27 10:09:33;;;;;;;2.38;1.90;;;14.70;59.40;;;;;;4954002;28;20484;-83
2022/04/27 10:12:03;;;;;;;2.90;1.88;;;14.80;59.30;;;;;;4938536;29;20070;-81
2022/04/27 10:14:30;;;;;;;1.80;1.60;;;14.90;59.30;;;;;;4954371;28;20039;-82
2022/04/27 10:16:56;;;;;;;1.42;1.33;;;15.00;59.20;;;;;;4941937;29;20027;-82
2022/04/27 10:19:23;;;;;;;1.52;1.42;;;15.10;59.20;;;;;;4942316;29;20038;-82
2022/04/27 10:21:57;;;;;;;1.63;1.52;;;15.10;59.10;;;;;;4958387;28;20033;-81
2022/04/27 10:24:38;;;;;;;1.70;1.60;;;15.20;59.10;;;;;;4942340;29;20039;-81
2022/04/27 10:27:19;;;;;;;2.10;1.50;;;15.20;59.10;;;;;;4943150;29;20041;-82
2022/04/27 10:29:59;;;;;;;1.98;1.63;;;15.30;59.10;;;;;;4941770;29;20039;-82
2022/04/27 10:32:43;;;;;;;1.83;1.50;;;15.40;59.10;;;;;;4942411;29;20360;-81
2022/04/27 10:35:12;;;;;;;1.60;1.48;;;15.40;59.10;;;;;;4957447;29;20035;-80
2022/04/27 10:37:44;;;;;;;2.47;1.60;;;15.50;59.00;;;;;;4941777;29;20036;-79
2022/04/27 10:40:32;;;;;;;2.00;1.80;;;15.50;59.00;;;;;;4941266;29;20078;-81
2022/04/27 10:43:06;;;;;;;1.67;1.42;;;15.50;59.10;;;;;;4941630;29;20093;-79
2022/04/27 10:45:32;;;;;;;2.55;1.90;;;15.60;59.00;;;;;;4957293;29;20031;-78
2022/04/27 10:47:58;;;;;;;2.50;1.60;;;15.60;59.00;;;;;;4926441;29;20019;-78
2022/04/27 10:50:28;;;;;;;2.63;1.80;;;15.60;59.00;;;;;;4941589;29;20124;-79
2022/04/27 10:52:55;;;;;;;2.22;1.70;;;15.70;59.00;;;;;;4941553;29;20484;-78
2022/04/27 10:55:40;;;;;;;2.20;1.60;;;15.70;59.00;;;;;;4957190;28;20479;-78
2022/04/27 10:58:16;;;;;;;2.20;1.73;;;15.80;59.10;;;;;;4941320;29;20031;-78
2022/04/27 11:00:57;;;;;;;2.38;1.88;;;15.80;59.00;;;;;;4957016;29;20090;-78
2022/04/27 11:03:31;;;;;;;1.60;1.50;;;15.80;59.20;;;;;;4956776;29;20066;-78
2022/04/27 11:06:07;;;;;;;2.17;1.80;;;15.80;59.10;;;;;;4942808;29;20538;-79
2022/04/27 11:08:33;;;;;;;1.88;1.50;;;15.90;59.20;;;;;;4957091;29;20027;-79
2022/04/27 11:11:03;;;;;;;1.50;1.38;;;15.90;59.20;;;;;;4956798;28;20062;-79
2022/04/27 11:13:34;;;;;;;2.88;1.75;;;16.00;59.30;;;;;;4957332;29;20027;-81
2022/04/27 11:16:13;;;;;;;2.03;1.52;;;16.00;59.40;;;;;;4940930;29;20434;-82
2022/04/27 11:18:58;;;;;;;1.45;1.35;;;16.10;59.50;;;;;;4940819;29;20105;-83
2022/04/27 11:21:28;;;;;;;1.60;1.50;;;16.10;59.70;;;;;;4956949;29;20090;-79
2022/04/27 11:23:54;;;;;;;2.95;1.90;;;16.10;59.70;;;;;;4940953;29;20028;-80
2022/04/27 11:26:20;;;;;;;1.90;1.58;;;16.20;59.80;;;;;;4923964;29;20047;-81
2022/04/27 11:28:46;;;;;;;1.85;1.58;;;16.30;59.80;;;;;;4957433;28;20034;-81
2022/04/27 11:31:14;;;;;;;1.73;1.52;;;16.40;59.80;;;;;;4941061;29;20147;-82
2022/04/27 11:33:40;;;;;;;1.92;1.60;;;16.40;59.90;;;;;;4940388;29;20027;-85
2022/04/27 11:36:19;;;;;;;2.13;1.60;;;16.50;59.90;;;;;;4958050;28;20027;-79
2022/04/27 11:38:45;;;;;;;2.63;1.77;;;16.60;60.00;;;;;;4957425;29;20030;-82
2022/04/27 11:41:15;;;;;;;1.77;1.63;;;16.70;60.00;;;;;;4940467;29;20031;-80
2022/04/27 11:43:41;;;;;;;2.00;1.60;;;16.80;60.10;;;;;;4940317;29;20463;-84
2022/04/27 11:46:08;;;;;;;2.00;1.65;;;16.80;60.20;;;;;;4957565;28;20082;-80
2022/04/27 11:48:35;;;;;;;1.88;1.70;;;16.90;60.30;;;;;;4956282;28;20034;-79
2022/04/27 11:51:02;;;;;;;1.77;1.60;;;17.00;60.30;;;;;;4940588;29;20059;-81
2022/04/27 11:53:28;;;;;;;2.80;1.70;;;17.10;60.50;;;;;;4956477;29;20121;-80
2022/04/27 11:55:57;;;;;;;1.95;1.42;;;17.20;60.70;;;;;;4956472;28;20027;-82
2022/04/27 11:58:25;;;;;;;2.33;1.50;;;17.20;60.60;;;;;;4940963;29;20035;-78
2022/04/27 12:00:58;;;;;;;1.48;1.35;;;17.40;60.60;;;;;;4955938;29;20468;-79
2022/04/27 12:03:30;;;;;;;2.35;1.52;;;17.40;60.70;;;;;;4939950;29;20048;-79
2022/04/27 12:05:56;;;;;;;2.63;1.80;;;17.50;60.70;;;;;;4940016;29;20042;-82
2022/04/27 12:08:26;;;;;;;1.95;1.75;;;17.60;61.40;;;;;;4956365;28;20019;-79
2022/04/27 12:10:53;;;;;;;1.55;1.42;;;17.60;60.80;;;;;;4958109;28;20062;-83
2022/04/27 12:13:21;;;;;;;2.22;1.63;;;17.70;60.90;;;;;;4958597;29;20110;-79
2022/04/27 12:15:52;;;;;;;2.13;1.73;;;17.80;61.00;;;;;;4940143;29;20028;-79
2022/04/27 12:18:19;;;;;;;2.10;1.63;;;17.90;61.00;;;;;;4957383;28;20098;-83
2022/04/27 12:20:48;;;;;;;1.60;1.50;;;17.90;60.90;;;;;;4940208;29;20038;-82
2022/04/27 12:23:34;;;;;;;1.70;1.60;;;18.00;61.00;;;;;;4955449;28;20059;-79
2022/04/27 12:26:00;;;;;;;1.80;1.55;;;18.00;61.10;;;;;;4956446;28;20032;-81
2022/04/27 12:28:47;;;;;;;2.53;1.80;;;18.10;61.00;;;;;;4908663;29;20498;-82
2022/04/27 12:31:17;;;;;;;2.50;1.60;;;18.10;61.20;;;;;;4939830;29;20099;-80
2022/04/27 12:33:48;;;;;;;2.50;1.75;;;18.20;61.00;;;;;;4955597;29;20066;-84
2022/04/27 12:39:06;;;;;;;2.10;1.63;;;18.30;61.00;;;;;;4955839;28;20490;-83
2022/04/27 12:41:44;;;;;;;2.80;1.77;;;18.40;61.00;;;;;;4955285;29;20119;-79
2022/04/27 12:44:19;;;;;;;2.05;1.70;;;18.40;61.00;;;;;;4955575;29;20040;-80
2022/04/27 12:47:07;;;;;;;1.92;1.65;;;18.50;60.90;;;;;;4956022;28;20066;-78
2022/04/27 12:49:36;;;;;;;2.45;1.75;;;18.50;60.80;;;;;;4955201;29;20027;-79
2022/04/27 12:52:18;;;;;;;1.95;1.70;;;18.60;60.60;;;;;;4939436;29;20186;-82
2022/04/27 12:54:45;;;;;;;3.03;2.03;;;18.60;60.50;;;;;;4954522;28;20038;-83
2022/04/27 12:57:12;;;;;;;2.53;1.70;;;18.70;60.50;;;;;;4938921;29;20027;-81
2022/04/27 12:59:57;;;;;;;2.00;1.75;;;18.70;60.40;;;;;;4956350;28;20042;-78
2022/04/27 13:02:24;;;;;;;1.70;1.60;;;18.80;60.60;;;;;;4939048;29;20035;-80
2022/04/27 13:04:50;;;;;;;1.65;1.55;;;18.80;60.40;;;;;;4954896;29;20035;-80
2022/04/27 13:07:16;;;;;;;1.90;1.60;;;18.80;60.40;;;;;;4954688;28;20141;-78
2022/04/27 13:12:35;;;;;;;2.40;1.80;;;19.00;60.40;;;;;;4927763;29;20467;-80
2022/04/27 13:15:02;;;;;;;2.17;1.83;;;19.00;60.50;;;;;;4954808;29;20435;-81
2022/04/27 13:17:28;;;;;;;1.90;1.58;;;19.10;60.40;;;;;;4938632;29;20038;-83
2022/04/27 13:19:54;;;;;;;2.80;1.90;;;19.10;60.30;;;;;;4938574;29;20039;-79
2022/04/27 13:22:20;;;;;;;2.10;1.65;;;19.10;60.20;;;;;;4938729;29;20027;-79
2022/04/27 13:24:45;;;;;;;2.67;1.80;;;19.20;60.20;;;;;;4939108;29;20383;-79
2022/04/27 13:27:11;;;;;;;2.40;1.85;;;19.20;60.00;;;;;;4938196;29;20023;-79
2022/04/27 13:29:37;;;;;;;2.38;2.08;;;19.30;59.90;;;;;;4938543;29;20099;-78
2022/04/27 13:32:03;;;;;;;2.72;1.80;;;19.30;59.80;;;;;;4938459;29;20027;-78
2022/04/27 13:34:29;;;;;;;2.90;2.05;;;19.40;59.90;;;;;;4954678;29;20031;-79
2022/04/27 13:36:56;;;;;;;2.65;1.80;;;19.30;59.80;;;;;;4954072;28;20031;-79